createdAt,value
2022-12-01T00:03:17.210Z,1.30
2022-12-01T00:08:24.140Z,1.10
2022-12-01T00:13:33.394Z,1.70
2022-12-01T00:18:40.205Z,1.83
2022-12-01T00:23:50.085Z,2.50
2022-12-01T00:29:00.421Z,2.33
2022-12-01T00:34:11.393Z,1.23
2022-12-01T00:39:16.545Z,2.07
2022-12-01T00:44:24.743Z,1.30
2022-12-01T00:49:31.718Z,1.60
2022-12-01T00:54:38.802Z,2.30
2022-12-01T00:59:45.783Z,1.30
2022-12-01T01:04:52.930Z,1.33
2022-12-01T01:10:00.145Z,1.27
2022-12-01T01:15:08.769Z,1.20
2022-12-01T01:20:15.799Z,1.13
2022-12-01T01:25:26.149Z,1.00
2022-12-01T01:30:33.677Z,0.83
2022-12-01T01:35:42.069Z,1.60
2022-12-01T01:40:49.949Z,2.20
2022-12-01T01:45:57.048Z,1.30
2022-12-01T01:51:06.501Z,2.57
2022-12-01T01:56:13.631Z,1.10
2022-12-01T02:01:20.707Z,1.17
2022-12-01T02:06:28.355Z,2.47
2022-12-01T02:11:40.024Z,1.30
2022-12-01T02:16:51.035Z,1.77
2022-12-01T02:21:59.399Z,1.33
2022-12-01T02:27:09.276Z,1.20
2022-12-01T02:32:19.080Z,1.33
2022-12-01T02:37:29.869Z,1.47
2022-12-01T02:42:41.331Z,4.37
2022-12-01T02:47:50.462Z,1.20
2022-12-01T02:52:58.027Z,1.03
2022-12-01T02:58:07.876Z,1.10
2022-12-01T03:03:18.098Z,1.27
2022-12-01T03:08:27.861Z,4.33
2022-12-01T03:13:35.786Z,1.20
2022-12-01T03:18:43.787Z,1.37
2022-12-01T03:23:53.700Z,2.63
2022-12-01T03:29:03.860Z,1.33
2022-12-01T03:34:13.606Z,1.60
2022-12-01T03:39:23.541Z,2.57
2022-12-01T03:44:33.377Z,1.90
2022-12-01T03:49:42.112Z,1.40
2022-12-01T03:54:53.009Z,1.60
2022-12-01T04:00:00.469Z,1.40
2022-12-01T04:05:09.710Z,1.37
2022-12-01T04:10:16.685Z,1.93
2022-12-01T04:15:23.555Z,1.83
2022-12-01T04:20:30.503Z,1.30
2022-12-01T04:25:37.468Z,2.07
2022-12-01T04:30:44.335Z,1.50
2022-12-01T04:35:54.188Z,1.60
2022-12-01T04:41:01.260Z,1.30
2022-12-01T04:46:08.828Z,1.30
2022-12-01T04:51:16.234Z,1.40
2022-12-01T04:56:23.777Z,1.20
2022-12-01T05:01:30.818Z,1.50
2022-12-01T05:06:38.179Z,2.20
2022-12-01T05:11:44.994Z,2.07
2022-12-01T05:16:51.978Z,2.20
2022-12-01T05:21:59.079Z,1.23
2022-12-01T05:27:06.369Z,1.23
2022-12-01T05:32:13.619Z,1.40
2022-12-01T05:37:20.414Z,1.30
2022-12-01T05:42:27.668Z,2.37
2022-12-01T05:47:34.557Z,2.03
2022-12-01T05:52:41.398Z,1.80
2022-12-01T05:57:48.516Z,2.30
2022-12-01T06:02:55.575Z,1.17
2022-12-01T06:08:02.833Z,1.10
2022-12-01T06:13:09.966Z,1.67
2022-12-01T06:18:16.853Z,0.93
2022-12-01T06:23:28.883Z,0.80
2022-12-01T06:28:32.341Z,0.90
2022-12-01T06:33:39.397Z,1.10
2022-12-01T06:38:46.260Z,1.03
2022-12-01T06:43:53.173Z,1.00
2022-12-01T06:49:00.184Z,2.20
2022-12-01T06:54:07.886Z,1.47
2022-12-01T06:59:14.757Z,1.60
2022-12-01T07:04:22.428Z,1.73
2022-12-01T07:09:29.229Z,1.23
2022-12-01T07:14:36.618Z,1.10
2022-12-01T07:19:43.460Z,1.20
2022-12-01T07:24:50.446Z,1.03
2022-12-01T07:29:57.390Z,1.43
2022-12-01T07:35:04.320Z,1.00
2022-12-01T07:40:12.020Z,1.53
2022-12-01T07:45:19.039Z,1.47
2022-12-01T07:50:25.869Z,0.80
2022-12-01T07:55:32.764Z,1.23
2022-12-01T08:00:39.728Z,2.07
2022-12-01T08:05:46.831Z,1.03
2022-12-01T08:10:54.921Z,1.13
2022-12-01T08:16:05.352Z,1.30
2022-12-01T08:21:15.631Z,1.33
2022-12-01T08:26:23.676Z,1.57
2022-12-01T08:31:35.569Z,1.53
2022-12-01T08:36:42.597Z,1.70
2022-12-01T08:41:49.541Z,3.63
2022-12-01T08:46:56.451Z,1.70
2022-12-01T08:52:03.401Z,1.60
2022-12-01T08:57:10.191Z,1.60
2022-12-01T09:02:19.471Z,3.23
2022-12-01T09:07:27.116Z,1.40
2022-12-01T09:12:34.102Z,2.33
2022-12-01T09:17:41.052Z,3.10
2022-12-01T09:22:48.025Z,1.40
2022-12-01T09:27:55.014Z,1.60
2022-12-01T09:33:01.874Z,2.77
2022-12-01T09:38:08.795Z,2.20
2022-12-01T09:43:18.651Z,1.87
2022-12-01T09:48:28.438Z,1.27
2022-12-01T09:53:35.299Z,2.33
2022-12-01T09:58:43.109Z,1.60
2022-12-01T10:03:52.919Z,1.20
2022-12-01T10:09:03.382Z,1.57
2022-12-01T10:14:19.773Z,1.70
2022-12-01T10:19:27.493Z,1.90
2022-12-01T10:24:44.116Z,1.90
2022-12-01T10:29:53.331Z,2.20
2022-12-01T10:35:00.985Z,1.80
2022-12-01T10:40:10.925Z,1.87
2022-12-01T10:45:22.509Z,2.07
2022-12-01T10:50:29.572Z,1.70
2022-12-01T10:55:44.802Z,1.60
2022-12-01T11:00:59.758Z,1.70
2022-12-01T11:06:02.768Z,1.87
2022-12-01T11:11:12.686Z,1.90
2022-12-01T11:16:22.776Z,2.00
2022-12-01T11:21:29.941Z,1.90
2022-12-01T11:26:36.827Z,1.70
2022-12-01T11:31:46.781Z,1.77
2022-12-01T11:36:56.517Z,1.40
2022-12-01T11:42:06.346Z,1.80
2022-12-01T11:47:23.140Z,1.93
2022-12-01T11:52:25.023Z,1.87
2022-12-01T11:57:34.522Z,1.70
2022-12-01T12:02:44.575Z,2.07
2022-12-01T12:07:54.636Z,2.90
2022-12-01T12:13:04.589Z,2.10
2022-12-01T12:18:12.644Z,1.67
2022-12-01T12:23:20.800Z,2.37
2022-12-01T12:28:30.590Z,2.00
2022-12-01T12:33:40.634Z,2.00
2022-12-01T12:38:48.610Z,2.10
2022-12-01T12:43:58.426Z,2.70
2022-12-01T12:49:23.460Z,2.10
2022-12-01T12:54:18.160Z,2.10
2022-12-01T12:59:29.544Z,2.20
2022-12-01T13:04:39.390Z,1.50
2022-12-01T13:09:49.517Z,1.97
2022-12-01T13:15:01.355Z,1.50
2022-12-01T13:20:11.000Z,1.70
2022-12-01T13:25:20.999Z,2.00
2022-12-01T13:30:28.525Z,2.23
2022-12-01T13:35:38.369Z,2.83
2022-12-01T13:40:48.881Z,4.27
2022-12-01T13:45:59.967Z,2.53
2022-12-01T13:51:07.516Z,3.20
2022-12-01T13:56:16.530Z,3.23
2022-12-01T14:01:23.330Z,2.97
2022-12-01T14:06:31.497Z,3.17
2022-12-01T14:11:39.940Z,2.90
2022-12-01T14:16:48.439Z,3.33
2022-12-01T14:21:55.632Z,4.47
2022-12-01T14:27:03.625Z,3.83
2022-12-01T14:32:09.877Z,3.77
2022-12-01T14:37:20.911Z,3.90
2022-12-01T14:42:32.506Z,3.67
2022-12-01T14:47:42.316Z,4.70
2022-12-01T14:52:53.145Z,3.90
2022-12-01T14:58:04.393Z,4.13
2022-12-01T15:03:14.432Z,5.30
2022-12-01T15:13:36.346Z,4.80
2022-12-01T15:18:43.548Z,4.30
2022-12-01T15:23:53.428Z,4.00
2022-12-01T15:29:03.328Z,4.27
2022-12-01T15:34:13.870Z,3.90
2022-12-01T15:39:23.791Z,3.80
2022-12-01T15:44:33.629Z,3.70
2022-12-01T15:49:43.383Z,3.40
2022-12-01T15:54:52.234Z,3.80
2022-12-01T15:59:59.501Z,3.73
2022-12-01T16:05:09.397Z,3.87
2022-12-01T16:10:19.721Z,3.50
2022-12-01T16:15:26.760Z,3.07
2022-12-01T16:20:36.556Z,3.27
2022-12-01T16:25:48.056Z,3.73
2022-12-01T16:30:55.528Z,4.10
2022-12-01T16:36:03.809Z,3.87
2022-12-01T16:41:13.679Z,4.17
2022-12-01T16:46:20.711Z,4.10
2022-12-01T16:51:35.574Z,5.33
2022-12-01T16:56:36.347Z,3.37
2022-12-01T17:01:43.462Z,5.20
2022-12-01T17:06:51.785Z,3.87
2022-12-01T17:11:59.624Z,3.60
2022-12-01T17:17:06.511Z,3.97
2022-12-01T17:22:13.482Z,4.50
2022-12-01T17:27:20.262Z,4.10
2022-12-01T17:32:27.839Z,4.00
2022-12-01T17:37:36.446Z,3.60
2022-12-01T17:42:49.976Z,3.97
2022-12-01T17:47:52.934Z,3.67
2022-12-01T17:52:59.823Z,4.07
2022-12-01T17:58:06.827Z,3.57
2022-12-01T18:03:13.834Z,4.60
2022-12-01T18:08:20.775Z,3.83
2022-12-01T18:13:27.730Z,4.50
2022-12-01T18:18:35.043Z,6.83
2022-12-01T18:23:42.136Z,7.83
2022-12-01T18:28:50.749Z,9.73
2022-12-01T18:34:03.286Z,10.03
2022-12-01T18:39:12.220Z,9.97
2022-12-01T18:44:19.076Z,6.47
2022-12-01T18:49:26.187Z,3.73
2022-12-01T18:54:35.702Z,5.60
2022-12-01T18:59:42.828Z,5.03
2022-12-01T19:04:50.783Z,4.30
2022-12-01T19:09:58.821Z,4.47
2022-12-01T19:15:05.944Z,4.60
2022-12-01T19:20:13.385Z,5.17
2022-12-01T19:25:20.318Z,4.07
2022-12-01T19:30:27.119Z,4.27
2022-12-01T19:35:34.302Z,4.43
2022-12-01T19:40:42.433Z,3.60
2022-12-01T19:45:49.783Z,4.17
2022-12-01T19:50:56.749Z,4.27
2022-12-01T19:56:05.146Z,3.57
2022-12-01T20:01:15.228Z,6.10
2022-12-01T20:06:25.464Z,3.60
2022-12-01T20:11:33.275Z,4.00
2022-12-01T20:16:40.778Z,3.97
2022-12-01T20:21:47.670Z,3.70
2022-12-01T20:26:57.781Z,3.83
2022-12-01T20:32:05.521Z,3.97
2022-12-01T20:37:12.832Z,3.50
2022-12-01T20:42:21.394Z,3.80
2022-12-01T20:47:28.654Z,7.60
2022-12-01T20:52:37.384Z,5.33
2022-12-01T20:57:44.436Z,5.23
2022-12-01T21:02:51.365Z,3.67
2022-12-01T21:07:58.571Z,4.03
2022-12-01T21:13:11.381Z,4.17
2022-12-01T21:18:21.311Z,5.73
2022-12-01T21:23:30.453Z,4.30
2022-12-01T21:28:38.504Z,3.77
2022-12-01T21:33:45.363Z,5.30
2022-12-01T21:38:55.174Z,3.90
2022-12-01T21:44:04.941Z,5.17
2022-12-01T21:49:14.688Z,4.57
2022-12-01T21:54:24.266Z,4.07
2022-12-01T21:59:31.870Z,4.23
2022-12-01T22:04:39.221Z,3.60
2022-12-01T22:09:46.051Z,3.30
2022-12-01T22:14:56.044Z,4.47
2022-12-01T22:20:05.146Z,3.63
2022-12-01T22:25:15.145Z,4.63
2022-12-01T22:30:24.493Z,4.50
2022-12-01T22:35:34.502Z,5.27
2022-12-01T22:40:44.276Z,5.10
2022-12-01T22:45:53.263Z,3.27
2022-12-01T22:51:03.103Z,3.20
2022-12-01T22:56:12.984Z,3.27
2022-12-01T23:01:21.092Z,3.53
2022-12-01T23:06:30.950Z,2.93
2022-12-01T23:11:37.978Z,2.40
2022-12-01T23:16:44.946Z,2.30
2022-12-01T23:21:53.695Z,2.10
2022-12-01T23:27:01.957Z,2.63
2022-12-01T23:32:12.370Z,2.20
2022-12-01T23:37:22.135Z,2.33
2022-12-01T23:42:29.061Z,2.70
2022-12-01T23:47:37.472Z,3.63
2022-12-01T23:52:44.800Z,2.43
2022-12-01T23:57:53.638Z,2.20
